createdAt,value
2018-09-20T00:00:28.392Z,18.08
2018-09-20T00:01:28.392Z,18.07
2018-09-20T00:02:28.377Z,18.12
2018-09-20T00:03:28.373Z,18.07
2018-09-20T00:04:28.373Z,18.08
2018-09-20T00:05:28.366Z,18.12
2018-09-20T00:06:28.361Z,18.08
2018-09-20T00:07:28.358Z,18.07
2018-09-20T00:08:28.359Z,18.08
2018-09-20T00:09:28.390Z,18.15
2018-09-20T00:10:28.356Z,18.11
2018-09-20T00:11:28.346Z,18.14
2018-09-20T00:12:28.334Z,18.05
2018-09-20T00:13:28.328Z,18.12
2018-09-20T00:14:28.325Z,18.12
2018-09-20T00:15:28.327Z,18.12
2018-09-20T00:16:28.360Z,18.08
2018-09-20T00:17:28.312Z,18.02
2018-09-20T00:18:28.309Z,18.02
2018-09-20T00:19:28.302Z,18.03
2018-09-20T00:20:28.550Z,17.93
2018-09-20T00:22:28.295Z,17.92
2018-09-20T00:24:28.287Z,17.87
2018-09-20T00:25:28.275Z,17.84
2018-09-20T00:26:28.276Z,17.93
2018-09-20T00:27:28.018Z,17.87
2018-09-20T00:28:28.264Z,17.87
2018-09-20T00:29:28.258Z,17.92
2018-09-20T00:30:28.258Z,17.9
2018-09-20T00:31:27.997Z,17.86
2018-09-20T00:32:27.992Z,17.89
2018-09-20T00:33:28.249Z,17.84
2018-09-20T00:34:27.984Z,17.77
2018-09-20T00:35:28.241Z,17.86
2018-09-20T00:36:28.232Z,17.86
2018-09-20T00:37:28.232Z,17.86
2018-09-20T00:38:28.222Z,17.84
2018-09-20T00:39:28.218Z,17.82
2018-09-20T00:40:28.212Z,17.82
2018-09-20T00:41:28.206Z,17.87
2018-09-20T00:42:28.199Z,17.82
2018-09-20T00:43:28.199Z,17.9
2018-09-20T00:44:28.190Z,17.84
2018-09-20T00:45:28.185Z,17.87
2018-09-20T00:46:28.185Z,17.86
2018-09-20T00:47:28.177Z,17.86
2018-09-20T00:48:28.172Z,17.86
2018-09-20T00:49:28.168Z,17.87
2018-09-20T00:50:28.164Z,17.89
2018-09-20T00:51:28.409Z,17.9
2018-09-20T00:52:28.154Z,17.77
2018-09-20T00:53:28.152Z,17.82
2018-09-20T00:54:28.146Z,17.79
2018-09-20T00:55:28.147Z,17.81
2018-09-20T00:56:28.139Z,17.72
2018-09-20T00:57:27.882Z,17.79
2018-09-20T00:58:28.130Z,17.78
2018-09-20T00:59:28.121Z,17.84
2018-09-20T01:00:28.213Z,17.82
2018-09-20T01:01:28.119Z,17.79
2018-09-20T01:02:28.108Z,17.72
2018-09-20T01:03:27.851Z,17.82
2018-09-20T01:04:28.102Z,17.79
2018-09-20T01:05:28.103Z,17.79
2018-09-20T01:06:28.098Z,17.81
2018-09-20T01:07:28.087Z,17.81
2018-09-20T01:08:28.081Z,17.87
2018-09-20T01:09:28.078Z,17.86
2018-09-20T01:10:28.074Z,17.81
2018-09-20T01:11:28.074Z,17.79
2018-09-20T01:12:28.063Z,17.84
2018-09-20T01:13:28.059Z,17.81
2018-09-20T01:14:28.055Z,17.74
2018-09-20T01:15:28.053Z,17.72
2018-09-20T01:16:28.044Z,17.78
2018-09-20T01:17:28.043Z,17.74
2018-09-20T01:18:28.036Z,17.71
2018-09-20T01:19:28.035Z,17.62
2018-09-20T01:20:28.036Z,17.74
2018-09-20T01:21:28.025Z,17.68
2018-09-20T01:22:28.269Z,17.68
2018-09-20T01:23:28.012Z,17.68
2018-09-20T01:24:28.008Z,17.64
2018-09-20T01:25:28.016Z,17.66
2018-09-20T01:26:28.007Z,17.63
2018-09-20T01:27:28.005Z,17.68
2018-09-20T01:28:27.992Z,17.66
2018-09-20T01:29:27.733Z,17.64
2018-09-20T01:30:27.730Z,17.63
2018-09-20T01:31:27.975Z,17.63
2018-09-20T01:32:27.975Z,17.59
2018-09-20T01:33:27.972Z,17.7
2018-09-20T01:34:27.963Z,17.68
2018-09-20T01:35:28.286Z,17.64
2018-09-20T01:36:27.953Z,17.64
2018-09-20T01:37:27.956Z,17.62
2018-09-20T01:38:27.947Z,17.62
2018-09-20T01:39:27.951Z,17.59
2018-09-20T01:40:27.683Z,17.64
2018-09-20T01:41:27.930Z,17.66
2018-09-20T01:42:27.928Z,17.71
2018-09-20T01:43:27.938Z,17.72
2018-09-20T01:44:27.916Z,17.68
2018-09-20T01:45:27.661Z,17.59
2018-09-20T01:46:27.906Z,17.75
2018-09-20T01:47:27.908Z,17.71
2018-09-20T01:48:27.648Z,17.78
2018-09-20T01:49:27.648Z,17.87
2018-09-20T01:50:27.915Z,17.82
2018-09-20T01:51:27.885Z,17.77
2018-09-20T01:52:27.879Z,17.87
2018-09-20T01:53:27.874Z,17.89
2018-09-20T01:54:27.621Z,17.87
2018-09-20T01:55:27.868Z,17.95
2018-09-20T01:56:27.860Z,17.89
2018-09-20T01:57:27.857Z,17.86
2018-09-20T01:58:27.601Z,17.89
2018-09-20T01:59:27.848Z,17.87
2018-09-20T02:00:27.843Z,17.93
2018-09-20T02:01:27.846Z,17.92
2018-09-20T02:02:27.579Z,17.96
2018-09-20T02:03:27.828Z,17.9
2018-09-20T02:04:27.824Z,18
2018-09-20T02:05:27.821Z,18.03
2018-09-20T02:06:27.565Z,18.02
2018-09-20T02:07:27.818Z,18.05
2018-09-20T02:08:27.554Z,18.1
2018-09-20T02:09:27.802Z,18.14
2018-09-20T02:10:27.297Z,18.12
2018-09-20T02:11:27.791Z,18.17
2018-09-20T02:12:27.784Z,18.02
2018-09-20T02:13:27.782Z,18.08
2018-09-20T02:14:27.777Z,18.12
2018-09-20T02:15:27.777Z,18.14
2018-09-20T02:16:27.774Z,18.12
2018-09-20T02:17:27.767Z,18.08
2018-09-20T02:18:27.760Z,18.12
2018-09-20T02:19:27.756Z,18.2
2018-09-20T02:20:27.750Z,18.21
2018-09-20T02:21:27.746Z,18.14
2018-09-20T02:22:27.746Z,18.11
2018-09-20T02:23:27.489Z,18.17
2018-09-20T02:24:27.791Z,18.18
2018-09-20T02:25:27.728Z,18.18
2018-09-20T02:26:27.726Z,18.2
2018-09-20T02:27:27.471Z,18.25
2018-09-20T02:28:27.717Z,18.18
2018-09-20T02:29:27.710Z,18.17
2018-09-20T02:30:27.460Z,18.18
2018-09-20T02:31:27.706Z,18.15
2018-09-20T02:32:27.704Z,18.23
2018-09-20T02:33:27.692Z,18.23
2018-09-20T02:34:27.695Z,18.25
2018-09-20T02:35:27.686Z,18.21
2018-09-20T02:36:27.685Z,18.17
2018-09-20T02:37:27.684Z,18.18
2018-09-20T02:38:27.687Z,18.21
2018-09-20T02:39:27.417Z,18.2
2018-09-20T02:40:27.763Z,18.21
2018-09-20T02:41:27.664Z,18.15
2018-09-20T02:42:27.655Z,18.07
2018-09-20T02:43:27.650Z,18.23
2018-09-20T02:44:27.402Z,18.21
2018-09-20T02:45:27.136Z,18.17
2018-09-20T02:46:27.647Z,18.11
2018-09-20T02:47:27.634Z,18.18
2018-09-20T02:48:27.376Z,18.15
2018-09-20T02:49:27.622Z,18.15
2018-09-20T02:50:27.620Z,18.18
2018-09-20T02:51:27.630Z,18.2
2018-09-20T02:52:27.609Z,18.2
2018-09-20T02:53:27.607Z,18.15
2018-09-20T02:54:27.604Z,18.17
2018-09-20T02:55:27.100Z,18.17
2018-09-20T02:56:27.599Z,18.1
2018-09-20T02:57:27.590Z,18.2
2018-09-20T02:58:27.582Z,18.14
2018-09-20T02:59:27.581Z,18.1
2018-09-20T03:00:27.330Z,18.11
2018-09-20T03:01:27.570Z,18.14
2018-09-20T03:02:27.565Z,18.08
2018-09-20T03:03:27.561Z,18.14
2018-09-20T03:04:27.556Z,18.11
2018-09-20T03:05:27.552Z,18.08
2018-09-20T03:06:27.549Z,18.07
2018-09-20T03:07:27.546Z,18.14
2018-09-20T03:08:27.545Z,17.99
2018-09-20T03:09:27.547Z,18.02
2018-09-20T03:10:27.531Z,18.08
2018-09-20T03:11:27.523Z,18.03
2018-09-20T03:12:27.519Z,17.99
2018-09-20T03:13:27.530Z,18.03
2018-09-20T03:14:27.512Z,17.99
2018-09-20T03:15:27.506Z,18
2018-09-20T03:16:27.504Z,18.03
2018-09-20T03:17:27.497Z,18.02
2018-09-20T03:18:27.253Z,18.02
2018-09-20T03:19:27.501Z,17.9
2018-09-20T03:20:27.532Z,17.92
2018-09-20T03:21:27.483Z,17.93
2018-09-20T03:22:27.222Z,17.93
2018-09-20T03:23:27.485Z,17.92
2018-09-20T03:24:27.466Z,17.93
2018-09-20T03:25:27.466Z,17.89
2018-09-20T03:26:27.460Z,17.86
2018-09-20T03:27:27.752Z,17.93
2018-09-20T03:28:27.449Z,17.86
2018-09-20T03:29:27.449Z,17.92
2018-09-20T03:30:27.810Z,17.9
2018-09-20T03:31:27.458Z,17.86
2018-09-20T03:32:27.444Z,17.87
2018-09-20T03:33:27.437Z,17.95
2018-09-20T03:34:27.425Z,17.84
2018-09-20T03:35:27.427Z,17.82
2018-09-20T03:36:27.411Z,17.79
2018-09-20T03:37:27.415Z,17.87
2018-09-20T03:38:27.405Z,17.87
2018-09-20T03:39:27.154Z,17.84
2018-09-20T03:40:26.894Z,17.7
2018-09-20T03:41:27.391Z,17.87
2018-09-20T03:42:27.131Z,17.82
2018-09-20T03:43:27.384Z,17.74
2018-09-20T03:44:27.376Z,17.78
2018-09-20T03:45:27.374Z,17.72
2018-09-20T03:46:27.378Z,17.71
2018-09-20T03:47:27.360Z,17.66
2018-09-20T03:48:27.356Z,17.71
2018-09-20T03:49:27.106Z,17.68
2018-09-20T03:50:27.355Z,17.66
2018-09-20T03:51:27.090Z,17.66
2018-09-20T03:52:27.343Z,17.63
2018-09-20T03:53:27.332Z,17.71
2018-09-20T03:54:27.334Z,17.62
2018-09-20T03:55:27.324Z,17.59
2018-09-20T03:56:27.066Z,17.68
2018-09-20T03:57:27.317Z,17.55
2018-09-20T03:58:27.314Z,17.56
2018-09-20T03:59:27.304Z,17.52
2018-09-20T04:00:27.306Z,17.52
2018-09-20T04:01:27.296Z,17.49
2018-09-20T04:02:27.290Z,17.49
2018-09-20T04:03:27.284Z,17.48
2018-09-20T04:04:27.282Z,17.48
2018-09-20T04:05:27.280Z,17.41
2018-09-20T04:06:27.276Z,17.44
2018-09-20T04:07:27.270Z,17.4
2018-09-20T04:08:27.268Z,17.37
2018-09-20T04:09:27.267Z,17.48
2018-09-20T04:10:27.012Z,17.38
2018-09-20T04:11:26.998Z,17.43
2018-09-20T04:12:27.256Z,17.37
2018-09-20T04:13:27.241Z,17.37
2018-09-20T04:14:27.234Z,17.38
2018-09-20T04:15:27.236Z,17.4
2018-09-20T04:16:27.242Z,17.43
2018-09-20T04:17:27.236Z,17.4
2018-09-20T04:18:27.217Z,17.41
2018-09-20T04:19:27.218Z,17.37
2018-09-20T04:20:27.208Z,17.4
2018-09-20T04:21:26.949Z,17.4
2018-09-20T04:22:27.196Z,17.4
2018-09-20T04:23:26.949Z,17.3
2018-09-20T04:24:27.188Z,17.28
2018-09-20T04:25:26.937Z,17.26
2018-09-20T04:26:26.935Z,17.25
2018-09-20T04:27:26.927Z,17.31
2018-09-20T04:28:27.172Z,17.25
2018-09-20T04:29:27.416Z,17.36
2018-09-20T04:30:27.165Z,17.36
2018-09-20T04:31:27.151Z,17.33
2018-09-20T04:32:26.896Z,17.28
2018-09-20T04:33:27.167Z,17.38
2018-09-20T04:34:27.144Z,17.19
2018-09-20T04:35:27.146Z,17.22
2018-09-20T04:36:27.136Z,17.3
2018-09-20T04:37:26.873Z,17.3
2018-09-20T04:38:27.120Z,17.26
2018-09-20T04:39:27.122Z,17.26
2018-09-20T04:40:27.112Z,17.26
2018-09-20T04:41:26.853Z,17.28
2018-09-20T04:42:27.099Z,17.31
2018-09-20T04:43:27.094Z,17.26
2018-09-20T04:44:27.094Z,17.26
2018-09-20T04:45:27.094Z,17.23
2018-09-20T04:46:27.082Z,17.33
2018-09-20T04:47:26.823Z,17.3
2018-09-20T04:48:26.819Z,17.25
2018-09-20T04:49:27.065Z,17.25
2018-09-20T04:50:26.809Z,17.23
2018-09-20T04:51:27.056Z,17.26
2018-09-20T04:52:26.798Z,17.22
2018-09-20T04:53:27.012Z,17.31
2018-09-20T04:54:26.791Z,17.33
2018-09-20T04:55:26.791Z,17.3
2018-09-20T04:56:27.038Z,17.34
2018-09-20T04:57:27.029Z,17.23
2018-09-20T04:58:26.773Z,17.25
2018-09-20T04:59:27.019Z,17.36
2018-09-20T05:00:26.760Z,17.34
2018-09-20T05:01:27.008Z,17.31
2018-09-20T05:02:27.004Z,17.26
2018-09-20T05:03:27.043Z,17.31
2018-09-20T05:04:26.996Z,17.43
2018-09-20T05:05:26.736Z,17.31
2018-09-20T05:06:26.986Z,17.41
2018-09-20T05:07:26.978Z,17.46
2018-09-20T05:08:26.973Z,17.55
2018-09-20T05:09:26.813Z,17.55
2018-09-20T05:10:26.966Z,17.54
2018-09-20T05:11:27.017Z,17.56
2018-09-20T05:12:26.703Z,17.64
2018-09-20T05:13:26.953Z,17.68
2018-09-20T05:14:26.945Z,17.71
2018-09-20T05:15:26.695Z,17.79
2018-09-20T05:16:26.936Z,17.79
2018-09-20T05:17:26.682Z,17.89
2018-09-20T05:18:26.678Z,17.84
2018-09-20T05:19:26.922Z,17.9
2018-09-20T05:20:26.774Z,17.95
2018-09-20T05:21:26.921Z,18.08
2018-09-20T05:22:26.908Z,18.08
2018-09-20T05:23:27.007Z,18.17
2018-09-20T05:24:26.902Z,18.14
2018-09-20T05:25:26.897Z,18.26
2018-09-20T05:26:26.892Z,18.2
2018-09-20T05:27:26.893Z,18.36
2018-09-20T05:28:26.882Z,18.35
2018-09-20T05:29:26.884Z,18.32
2018-09-20T05:30:26.883Z,18.41
2018-09-20T05:31:26.878Z,18.47
2018-09-20T05:32:26.871Z,18.45
2018-09-20T05:33:26.766Z,18.54
2018-09-20T05:34:26.610Z,18.57
2018-09-20T05:35:27.067Z,18.65
2018-09-20T05:36:26.850Z,18.66
2018-09-20T05:37:26.846Z,18.76
2018-09-20T05:38:26.841Z,18.78
2018-09-20T05:39:26.836Z,18.82
2018-09-20T05:40:26.833Z,18.94
2018-09-20T05:41:26.831Z,19.02
2018-09-20T05:42:26.833Z,19.06
2018-09-20T05:43:26.647Z,18.99
2018-09-20T05:44:26.566Z,19.22
2018-09-20T05:45:26.814Z,19.26
2018-09-20T05:46:26.306Z,19.32
2018-09-20T05:47:26.806Z,19.33
2018-09-20T05:48:26.801Z,19.39
2018-09-20T05:49:26.797Z,19.44
2018-09-20T05:50:26.841Z,19.54
2018-09-20T05:51:26.791Z,19.62
2018-09-20T05:52:26.789Z,19.65
2018-09-20T05:53:26.536Z,19.73
2018-09-20T05:54:26.781Z,19.76
2018-09-20T05:55:26.786Z,19.88
2018-09-20T05:56:26.527Z,19.91
2018-09-20T05:57:26.774Z,19.98
2018-09-20T05:58:26.266Z,19.91
2018-09-20T05:59:27.029Z,20.03
2018-09-20T06:00:26.763Z,20.14
2018-09-20T06:01:26.758Z,20.08
2018-09-20T06:02:26.757Z,20.26
2018-09-20T06:03:26.750Z,20.29
2018-09-20T06:04:26.760Z,20.31
2018-09-20T06:05:26.764Z,20.32
2018-09-20T06:06:26.744Z,20.35
2018-09-20T06:07:26.740Z,20.38
2018-09-20T06:08:26.738Z,20.5
2018-09-20T06:09:26.738Z,20.57
2018-09-20T06:10:26.735Z,20.62
2018-09-20T06:11:26.729Z,20.74
2018-09-20T06:12:26.726Z,20.69
2018-09-20T06:13:26.825Z,20.87
2018-09-20T06:14:26.469Z,20.97
2018-09-20T06:15:26.728Z,21.04
2018-09-20T06:16:26.721Z,21.12
2018-09-20T06:17:26.711Z,21.17
2018-09-20T06:18:26.712Z,21.14
2018-09-20T06:19:26.708Z,21.19
2018-09-20T06:20:26.459Z,21.25
2018-09-20T06:21:26.450Z,21.31
2018-09-20T06:22:26.711Z,21.37
2018-09-20T06:23:26.702Z,21.53
2018-09-20T06:24:26.697Z,21.44
2018-09-20T06:25:26.695Z,21.59
2018-09-20T06:26:26.699Z,21.58
2018-09-20T06:27:26.439Z,21.56
2018-09-20T06:28:26.685Z,21.75
2018-09-20T06:29:26.688Z,21.8
2018-09-20T06:30:26.685Z,21.8
2018-09-20T06:31:26.681Z,21.86
2018-09-20T06:32:26.678Z,21.92
2018-09-20T06:33:26.675Z,22.03
2018-09-20T06:34:26.928Z,22.03
2018-09-20T06:35:26.682Z,22.07
2018-09-20T06:36:26.668Z,22.18
2018-09-20T06:37:26.668Z,22.21
2018-09-20T06:38:26.668Z,22.33
2018-09-20T06:39:26.668Z,22.3
2018-09-20T06:40:26.663Z,22.45
2018-09-20T06:41:26.667Z,22.47
2018-09-20T06:42:26.666Z,22.67
2018-09-20T06:43:26.660Z,22.8
2018-09-20T06:44:26.658Z,22.88
2018-09-20T06:45:26.404Z,22.91
2018-09-20T06:46:26.657Z,23.05
2018-09-20T06:47:26.658Z,23.23
2018-09-20T06:48:26.665Z,23.38
2018-09-20T06:49:26.658Z,23.53
2018-09-20T06:50:26.523Z,23.65
2018-09-20T06:51:26.648Z,23.85
2018-09-20T06:52:26.658Z,23.93
2018-09-20T06:53:26.651Z,24.16
2018-09-20T06:54:26.655Z,24.31
2018-09-20T06:55:26.147Z,24.43
2018-09-20T06:56:26.678Z,24.62
2018-09-20T06:57:26.658Z,24.8
2018-09-20T06:58:26.662Z,24.99
2018-09-20T06:59:26.654Z,25.15
2018-09-20T07:00:26.403Z,25.33
2018-09-20T07:01:26.404Z,25.58
2018-09-20T07:02:26.417Z,25.73
2018-09-20T07:03:27.004Z,25.99
2018-09-20T07:04:26.412Z,26.01
2018-09-20T07:05:26.668Z,26.25
2018-09-20T07:06:26.163Z,26.35
2018-09-20T07:07:26.417Z,26.57
2018-09-20T07:08:26.675Z,26.57
2018-09-20T07:09:26.677Z,26.72
2018-09-20T07:10:26.685Z,26.81
2018-09-20T07:11:26.681Z,26.99
2018-09-20T07:12:26.685Z,27.03
2018-09-20T07:13:26.687Z,27.17
2018-09-20T07:14:26.189Z,27.19
2018-09-20T07:15:26.699Z,27.24
2018-09-20T07:16:26.701Z,27.29
2018-09-20T07:17:26.704Z,27.27
2018-09-20T07:18:26.710Z,27.32
2018-09-20T07:19:26.715Z,27.41
2018-09-20T07:20:26.724Z,27.43
2018-09-20T07:21:26.722Z,27.46
2018-09-20T07:22:26.729Z,27.55
2018-09-20T07:23:26.729Z,27.74
2018-09-20T07:24:26.733Z,27.75
2018-09-20T07:25:27.123Z,27.84
2018-09-20T07:26:26.751Z,28.04
2018-09-20T07:27:26.503Z,28.09
2018-09-20T07:28:26.803Z,28.21
2018-09-20T07:29:26.782Z,28.43
2018-09-20T07:30:26.514Z,28.54
2018-09-20T07:31:26.769Z,28.67
2018-09-20T07:32:26.774Z,28.95
2018-09-20T07:33:26.782Z,29.02
2018-09-20T07:34:26.803Z,29.3
2018-09-20T07:35:26.794Z,29.46
2018-09-20T07:36:26.803Z,29.74
2018-09-20T07:37:26.808Z,29.79
2018-09-20T07:38:26.814Z,29.95
2018-09-20T07:39:26.821Z,29.97
2018-09-20T07:40:26.576Z,30.15
2018-09-20T07:41:26.581Z,30.26
2018-09-20T07:42:26.843Z,30.43
2018-09-20T07:43:26.713Z,30.51
2018-09-20T07:44:26.877Z,30.67
2018-09-20T07:45:26.863Z,30.72
2018-09-20T07:46:26.874Z,30.72
2018-09-20T07:47:26.880Z,30.75
2018-09-20T07:48:26.631Z,30.75
2018-09-20T07:49:26.893Z,30.73
2018-09-20T07:50:26.906Z,30.8
2018-09-20T07:51:26.657Z,30.86
2018-09-20T07:52:26.663Z,30.94
2018-09-20T07:53:26.923Z,30.94
2018-09-20T07:54:26.937Z,30.95
2018-09-20T07:55:26.947Z,30.97
2018-09-20T07:56:26.697Z,30.83
2018-09-20T07:57:27.004Z,30.8
2018-09-20T07:58:26.730Z,30.75
2018-09-20T07:59:26.970Z,30.73
2018-09-20T08:00:27.008Z,30.62
2018-09-20T08:01:27.042Z,30.62
2018-09-20T08:02:26.994Z,30.47
2018-09-20T08:03:26.748Z,30.39
2018-09-20T08:04:26.756Z,30.29
2018-09-20T08:05:26.764Z,30.19
2018-09-20T08:06:27.023Z,30.11
2018-09-20T08:07:27.034Z,30.02
2018-09-20T08:08:27.038Z,30
2018-09-20T08:09:27.042Z,29.89
2018-09-20T08:10:27.050Z,29.8
2018-09-20T08:11:26.812Z,29.71
2018-09-20T08:12:27.071Z,29.67
2018-09-20T08:13:27.071Z,29.71
2018-09-20T08:14:27.073Z,29.61
2018-09-20T08:15:26.834Z,29.48
2018-09-20T08:16:26.836Z,29.46
2018-09-20T08:17:27.091Z,29.33
2018-09-20T08:18:26.844Z,29.28
2018-09-20T08:19:27.102Z,29.15
2018-09-20T08:20:26.855Z,29.15
2018-09-20T08:21:27.199Z,29.09
2018-09-20T08:22:27.119Z,28.95
2018-09-20T08:23:27.121Z,28.92
2018-09-20T08:24:27.128Z,28.85
2018-09-20T08:25:26.890Z,28.85
2018-09-20T08:26:26.883Z,28.74
2018-09-20T08:27:26.889Z,28.68
2018-09-20T08:28:27.145Z,28.61
2018-09-20T08:29:27.147Z,28.56
2018-09-20T08:30:27.156Z,28.49
2018-09-20T08:31:27.175Z,28.56
2018-09-20T08:32:27.163Z,28.52
2018-09-20T08:33:27.166Z,28.52
2018-09-20T08:34:27.172Z,28.41
2018-09-20T08:35:27.173Z,28.43
2018-09-20T08:36:27.221Z,28.37
2018-09-20T08:37:27.341Z,28.33
2018-09-20T08:38:27.193Z,28.31
2018-09-20T08:39:27.186Z,28.27
2018-09-20T08:40:27.192Z,28.22
2018-09-20T08:41:27.199Z,28.21
2018-09-20T08:42:27.331Z,28.24
2018-09-20T08:43:27.211Z,28.22
2018-09-20T08:44:26.950Z,28.09
2018-09-20T08:45:26.955Z,28.12
2018-09-20T08:46:27.211Z,28.04
2018-09-20T08:47:26.961Z,28.06
2018-09-20T08:48:27.220Z,28.03
2018-09-20T08:49:26.717Z,27.97
2018-09-20T08:50:26.973Z,27.93
2018-09-20T08:51:27.229Z,27.85
2018-09-20T08:52:26.979Z,27.72
2018-09-20T08:53:26.982Z,27.74
2018-09-20T08:54:27.240Z,27.57
2018-09-20T08:55:26.988Z,27.55
2018-09-20T08:56:27.243Z,27.54
2018-09-20T08:57:27.245Z,27.54
2018-09-20T08:58:26.994Z,27.66
2018-09-20T08:59:27.002Z,27.59
2018-09-20T09:00:27.255Z,27.57
2018-09-20T09:01:27.006Z,27.51
2018-09-20T09:02:27.261Z,27.55
2018-09-20T09:03:27.261Z,27.41
2018-09-20T09:04:27.377Z,27.49
2018-09-20T09:05:27.270Z,27.46
2018-09-20T09:06:27.272Z,27.43
2018-09-20T09:07:27.272Z,27.5
2018-09-20T09:08:27.275Z,27.57
2018-09-20T09:09:27.025Z,27.49
2018-09-20T09:10:27.833Z,27.49
2018-09-20T09:11:27.284Z,27.54
2018-09-20T09:12:27.286Z,27.51
2018-09-20T09:13:27.292Z,27.63
2018-09-20T09:14:27.297Z,27.62
2018-09-20T09:15:27.293Z,27.62
2018-09-20T09:16:27.294Z,27.59
2018-09-20T09:17:27.300Z,27.57
2018-09-20T09:18:27.298Z,27.51
2018-09-20T09:19:27.318Z,27.5
2018-09-20T09:20:27.306Z,27.63
2018-09-20T09:21:27.307Z,27.62
2018-09-20T09:22:27.062Z,27.62
2018-09-20T09:23:27.316Z,27.62
2018-09-20T09:24:27.319Z,27.65
2018-09-20T09:25:27.317Z,27.65
2018-09-20T09:26:27.318Z,27.63
2018-09-20T09:27:27.318Z,27.74
2018-09-20T09:28:27.123Z,27.63
2018-09-20T09:29:27.324Z,27.65
2018-09-20T09:30:27.078Z,27.63
2018-09-20T09:31:27.085Z,27.63
2018-09-20T09:32:27.332Z,27.62
2018-09-20T09:33:27.337Z,27.65
2018-09-20T09:34:27.338Z,27.6
2018-09-20T09:35:27.086Z,27.69
2018-09-20T09:36:27.369Z,27.6
2018-09-20T09:37:27.344Z,27.66
2018-09-20T09:38:27.103Z,27.63
2018-09-20T09:39:27.352Z,27.6
2018-09-20T09:40:27.101Z,27.63
2018-09-20T09:41:27.606Z,27.72
2018-09-20T09:42:27.366Z,27.72
2018-09-20T09:43:27.105Z,27.69
2018-09-20T09:44:27.372Z,27.65
2018-09-20T09:45:27.365Z,27.7
2018-09-20T09:46:27.365Z,27.66
2018-09-20T09:47:27.367Z,27.6
2018-09-20T09:48:27.368Z,27.57
2018-09-20T09:49:27.369Z,27.55
2018-09-20T09:50:27.120Z,27.62
2018-09-20T09:51:27.125Z,27.66
2018-09-20T09:52:27.125Z,27.65
2018-09-20T09:53:27.382Z,27.63
2018-09-20T09:54:27.596Z,27.62
2018-09-20T09:55:27.384Z,27.62
2018-09-20T09:56:27.133Z,27.75
2018-09-20T09:57:27.387Z,27.7
2018-09-20T09:58:27.391Z,27.7
2018-09-20T09:59:27.145Z,27.75
2018-09-20T10:00:27.399Z,27.74
2018-09-20T10:01:27.399Z,27.69
2018-09-20T10:02:27.180Z,27.79
2018-09-20T10:03:27.150Z,27.88
2018-09-20T10:04:27.409Z,27.88
2018-09-20T10:05:27.406Z,27.84
2018-09-20T10:06:27.412Z,27.94
2018-09-20T10:07:27.368Z,28.03
2018-09-20T10:08:27.414Z,28.06
2018-09-20T10:09:27.417Z,28.04
2018-09-20T10:10:27.423Z,28.04
2018-09-20T10:11:27.169Z,28.12
2018-09-20T10:12:27.425Z,28.21
2018-09-20T10:13:27.815Z,28.17
2018-09-20T10:14:27.429Z,28.37
2018-09-20T10:15:27.431Z,28.39
2018-09-20T10:16:27.433Z,28.49
2018-09-20T10:17:27.433Z,28.49
2018-09-20T10:18:27.443Z,28.48
2018-09-20T10:19:27.191Z,28.55
2018-09-20T10:20:27.444Z,28.64
2018-09-20T10:21:27.448Z,28.68
2018-09-20T10:22:27.452Z,28.76
2018-09-20T10:23:27.450Z,28.86
2018-09-20T10:24:27.453Z,28.77
2018-09-20T10:25:27.461Z,28.77
2018-09-20T10:26:27.462Z,28.92
2018-09-20T10:27:27.212Z,28.88
2018-09-20T10:28:27.475Z,28.96
2018-09-20T10:29:27.468Z,28.93
2018-09-20T10:30:27.474Z,28.83
2018-09-20T10:31:27.247Z,28.93
2018-09-20T10:32:27.478Z,28.95
2018-09-20T10:33:27.484Z,29.08
2018-09-20T10:34:27.231Z,29.08
2018-09-20T10:35:27.488Z,28.98
2018-09-20T10:36:27.491Z,29.02
2018-09-20T10:37:27.494Z,29.02
2018-09-20T10:38:27.245Z,28.96
2018-09-20T10:39:27.501Z,29.06
2018-09-20T10:40:27.510Z,28.96
2018-09-20T10:41:27.508Z,28.95
2018-09-20T10:42:27.011Z,28.86
2018-09-20T10:43:27.768Z,28.85
2018-09-20T10:44:27.516Z,28.88
2018-09-20T10:45:27.269Z,28.9
2018-09-20T10:46:27.527Z,28.93
2018-09-20T10:47:27.277Z,28.93
2018-09-20T10:48:27.538Z,28.9
2018-09-20T10:49:27.535Z,28.88
2018-09-20T10:50:27.538Z,28.92
2018-09-20T10:51:27.551Z,28.86
2018-09-20T10:52:27.544Z,28.95
2018-09-20T10:53:27.547Z,28.9
2018-09-20T10:54:27.678Z,28.95
2018-09-20T10:55:27.552Z,28.95
2018-09-20T10:56:27.562Z,28.86
2018-09-20T10:57:27.560Z,28.83
2018-09-20T10:58:27.311Z,28.86
2018-09-20T10:59:27.565Z,28.93
2018-09-20T11:00:27.319Z,28.81
2018-09-20T11:01:27.572Z,28.89
2018-09-20T11:02:27.577Z,28.81
2018-09-20T11:03:27.872Z,28.86
2018-09-20T11:04:27.580Z,28.74
2018-09-20T11:05:27.589Z,28.77
2018-09-20T11:06:27.590Z,28.73
2018-09-20T11:07:27.338Z,28.81
2018-09-20T11:08:27.604Z,28.8
2018-09-20T11:09:27.605Z,28.74
2018-09-20T11:10:27.388Z,28.88
2018-09-20T11:11:27.605Z,28.89
2018-09-20T11:12:27.609Z,28.89
2018-09-20T11:13:27.607Z,29
2018-09-20T11:14:27.608Z,28.85
2018-09-20T11:15:27.617Z,28.93
2018-09-20T11:16:27.622Z,28.85
2018-09-20T11:17:27.626Z,28.95
2018-09-20T11:18:27.626Z,28.93
2018-09-20T11:19:27.625Z,28.95
2018-09-20T11:20:27.634Z,28.95
2018-09-20T11:21:27.384Z,28.95
2018-09-20T11:22:27.635Z,28.92
2018-09-20T11:23:27.639Z,28.89
2018-09-20T11:24:27.651Z,28.9
2018-09-20T11:25:27.393Z,28.88
2018-09-20T11:26:27.648Z,29
2018-09-20T11:27:27.398Z,28.93
2018-09-20T11:28:27.653Z,28.9
2018-09-20T11:29:27.664Z,29.02
2018-09-20T11:30:27.660Z,28.92
2018-09-20T11:31:27.662Z,28.95
2018-09-20T11:32:27.666Z,28.93
2018-09-20T11:33:27.675Z,28.96
2018-09-20T11:34:27.675Z,28.92
2018-09-20T11:35:27.678Z,29
2018-09-20T11:36:28.001Z,28.92
2018-09-20T11:37:27.684Z,28.98
2018-09-20T11:38:27.688Z,29
2018-09-20T11:39:27.689Z,28.98
2018-09-20T11:40:27.697Z,28.98
2018-09-20T11:41:27.701Z,29.02
2018-09-20T11:42:27.699Z,29.04
2018-09-20T11:43:27.703Z,29.08
2018-09-20T11:44:27.705Z,29.09
2018-09-20T11:45:27.708Z,29.14
2018-09-20T11:46:27.723Z,29.14
2018-09-20T11:47:27.721Z,29.23
2018-09-20T11:48:27.717Z,29.27
2018-09-20T11:49:27.719Z,29.23
2018-09-20T11:50:27.723Z,29.28
2018-09-20T11:51:27.478Z,29.24
2018-09-20T11:52:27.738Z,29.24
2018-09-20T11:53:27.739Z,29.26
2018-09-20T11:54:27.739Z,29.27
2018-09-20T11:55:27.742Z,29.31
2018-09-20T11:56:27.490Z,29.28
2018-09-20T11:57:27.745Z,29.3
2018-09-20T11:58:27.748Z,29.26
2018-09-20T11:59:27.752Z,29.18
2018-09-20T12:00:27.754Z,29.21
2018-09-20T12:01:28.046Z,29.26
2018-09-20T12:02:27.762Z,29.24
2018-09-20T12:03:27.516Z,29.26
2018-09-20T12:04:27.516Z,29.24
2018-09-20T12:05:27.776Z,29.23
2018-09-20T12:06:27.522Z,29.21
2018-09-20T12:07:27.783Z,29.23
2018-09-20T12:08:27.785Z,29.19
2018-09-20T12:09:27.792Z,29.14
2018-09-20T12:10:27.536Z,29.15
2018-09-20T12:11:27.796Z,29.09
2018-09-20T12:12:27.813Z,29.09
2018-09-20T12:13:27.797Z,29.12
2018-09-20T12:14:27.587Z,29.12
2018-09-20T12:15:28.055Z,29.08
2018-09-20T12:16:27.805Z,29.09
2018-09-20T12:17:27.811Z,29.05
2018-09-20T12:18:27.820Z,29.05
2018-09-20T12:19:27.815Z,29.09
2018-09-20T12:20:27.821Z,29.15
2018-09-20T12:21:27.570Z,29.15
2018-09-20T12:22:27.583Z,29.11
2018-09-20T12:23:27.828Z,29.14
2018-09-20T12:24:27.581Z,29.14
2018-09-20T12:25:27.835Z,29.19
2018-09-20T12:26:27.838Z,29.15
2018-09-20T12:27:27.589Z,29.19
2018-09-20T12:28:27.592Z,29.21
2018-09-20T12:29:27.846Z,29.18
2018-09-20T12:30:27.598Z,29.18
2018-09-20T12:31:27.420Z,29.09
2018-09-20T12:32:28.055Z,29.18
2018-09-20T12:33:27.860Z,29.15
2018-09-20T12:34:27.870Z,29.14
2018-09-20T12:35:28.110Z,29.14
2018-09-20T12:36:27.868Z,29.18
2018-09-20T12:37:27.875Z,29.16
2018-09-20T12:38:27.876Z,29.21
2018-09-20T12:39:27.883Z,29.21
2018-09-20T12:40:27.884Z,29.18
2018-09-20T12:41:27.884Z,29.18
2018-09-20T12:42:27.886Z,29.21
2018-09-20T12:43:27.890Z,29.27
2018-09-20T12:44:27.643Z,29.24
2018-09-20T12:45:27.645Z,29.26
2018-09-20T12:46:27.898Z,29.23
2018-09-20T12:47:27.906Z,29.24
2018-09-20T12:48:28.028Z,29.19
2018-09-20T12:49:27.911Z,29.23
2018-09-20T12:50:27.925Z,29.26
2018-09-20T12:51:27.912Z,29.27
2018-09-20T12:52:27.915Z,29.3
2018-09-20T12:53:27.918Z,29.24
2018-09-20T12:54:27.950Z,29.23
2018-09-20T12:55:27.931Z,29.21
2018-09-20T12:56:27.929Z,29.24
2018-09-20T12:57:27.933Z,29.27